Time;durP1;ratioP1;P1;durP2;ratioP2;P2;SDS_P1;SDS_P2;PMS_P1;PMS_P2;Temp;Humidity;BMP_temperature;BMP_pressure;BME280_temperature;BME280_humidity;BME280_pressure;Samples;Min_cycle;Max_cycle;Signal;HPM_P1;HPM_P2
2021/12/06 00:02:18;;;;;;;;;6.00;2.00;;;;;;;;6354031;22;8776;-79
2021/12/06 00:04:43;;;;;;;;;3.00;2.00;;;;;;;;6347563;22;8740;-79
2021/12/06 00:07:15;;;;;;;;;2.25;1.50;;;;;;;;6353158;22;8844;-79
2021/12/06 00:09:42;;;;;;;;;1.25;1.00;;;;;;;;6357656;22;8763;-80
2021/12/06 00:12:08;;;;;;;;;2.50;2.00;;;;;;;;6298004;22;8751;-80
2021/12/06 00:14:36;;;;;;;;;1.50;1.50;;;;;;;;6326021;22;8740;-80
2021/12/06 01:01:25;;;;;;;;;3.00;2.00;;;;;;;;6360292;22;8830;-80
2021/12/06 01:03:50;;;;;;;;;3.50;3.50;;;;;;;;6347522;22;8760;-81
2021/12/06 01:06:16;;;;;;;;;1.75;1.00;;;;;;;;6372356;22;8896;-81
2021/12/06 01:08:41;;;;;;;;;1.00;1.00;;;;;;;;6376352;22;8760;-80
2021/12/06 01:11:11;;;;;;;;;2.00;1.75;;;;;;;;6371492;22;8755;-82
2021/12/06 01:13:36;;;;;;;;;4.00;2.00;;;;;;;;6329282;22;8783;-80
2021/12/06 01:16:02;;;;;;;;;4.75;3.25;;;;;;;;6362319;22;8736;-81
2021/12/06 01:18:27;;;;;;;;;5.75;4.00;;;;;;;;6364363;22;8755;-81
2021/12/06 01:21:00;;;;;;;;;2.75;2.75;;;;;;;;6359997;22;8767;-81
2021/12/06 01:23:30;;;;;;;;;2.00;2.00;;;;;;;;6361312;22;8752;-81
2021/12/06 01:31:33;;;;;;;;;6.50;2.75;;;;;;;;6366515;22;8755;-81
2021/12/06 01:41:33;;;;;;;;;2.25;2.25;;;;;;;;6366923;22;8840;-81
2021/12/06 01:44:03;;;;;;;;;6.00;2.25;;;;;;;;6358169;22;8704;-81
2021/12/06 01:46:28;;;;;;;;;5.00;2.00;;;;;;;;6358690;22;8724;-81
2021/12/06 01:48:54;;;;;;;;;1.50;1.50;;;;;;;;6341011;22;9329;-81
2021/12/06 01:51:19;;;;;;;;;2.00;1.75;;;;;;;;6374013;22;8778;-81
2021/12/06 01:53:44;;;;;;;;;4.75;2.00;;;;;;;;6344499;22;8767;-81
2021/12/06 01:56:10;;;;;;;;;2.00;2.00;;;;;;;;6342547;22;8732;-82
2021/12/06 01:58:35;;;;;;;;;2.50;2.50;;;;;;;;6358738;22;9507;-81
2021/12/06 02:01:01;;;;;;;;;1.67;1.67;;;;;;;;6359178;22;8802;-80
2021/12/06 02:03:31;;;;;;;;;1.50;1.50;;;;;;;;6367357;22;11387;-81
2021/12/06 02:05:56;;;;;;;;;1.50;1.50;;;;;;;;6329578;22;8836;-81
2021/12/06 02:08:24;;;;;;;;;1.50;1.00;;;;;;;;6356497;22;9575;-82
2021/12/06 02:10:52;;;;;;;;;1.25;1.25;;;;;;;;6375975;22;8720;-80
2021/12/06 02:13:17;;;;;;;;;1.00;1.00;;;;;;;;6368159;22;9317;-80
2021/12/06 02:15:50;;;;;;;;;4.50;3.00;;;;;;;;6361376;22;8798;-80
2021/12/06 02:18:41;;;;;;;;;3.50;3.50;;;;;;;;6367555;22;8744;-81
2021/12/06 02:21:25;;;;;;;;;5.00;2.00;;;;;;;;6328521;22;8728;-81
2021/12/06 02:23:53;;;;;;;;;3.25;2.75;;;;;;;;6361962;22;8685;-81
2021/12/06 02:26:19;;;;;;;;;5.00;5.00;;;;;;;;6328575;22;9492;-80
2021/12/06 02:35:49;;;;;;;;;3.00;2.00;;;;;;;;6356346;22;8716;-82
2021/12/06 02:37:55;;;;;;;;;4.50;4.50;;;;;;;;6359232;22;8728;-80
2021/12/06 08:50:55;;;;;;;;;17.50;11.50;;;;;;;;6325674;22;8853;-77
2021/12/06 08:53:23;;;;;;;;;17.50;14.00;;;;;;;;6352072;22;8743;-78
2021/12/06 08:55:56;;;;;;;;;10.25;10.25;;;;;;;;6346036;22;8732;-78
2021/12/06 08:58:22;;;;;;;;;11.00;9.50;;;;;;;;6348589;22;8676;-79
2021/12/06 09:00:52;;;;;;;;;12.25;7.00;;;;;;;;6378149;22;8687;-79
2021/12/06 09:03:18;;;;;;;;;10.25;6.25;;;;;;;;6345628;22;8756;-78
2021/12/06 09:10:53;;;;;;;;;13.75;10.00;;;;;;;;6342029;22;8761;-78
2021/12/06 09:13:19;;;;;;;;;14.50;11.25;;;;;;;;6323906;22;8750;-78
2021/12/06 09:15:45;;;;;;;;;9.75;8.00;;;;;;;;6327822;22;8757;-77
2021/12/06 09:18:10;;;;;;;;;14.50;11.50;;;;;;;;6335962;22;8754;-77
2021/12/06 09:20:37;;;;;;;;;19.25;14.00;;;;;;;;6334104;22;9313;-78
2021/12/06 09:23:04;;;;;;;;;16.00;14.00;;;;;;;;6333020;22;8753;-77
2021/12/06 09:25:30;;;;;;;;;17.50;14.00;;;;;;;;6321889;22;8734;-78
2021/12/06 09:27:55;;;;;;;;;15.00;13.50;;;;;;;;6330279;22;8754;-77
2021/12/06 09:30:24;;;;;;;;;13.67;11.67;;;;;;;;6316400;22;8742;-77
2021/12/06 09:32:49;;;;;;;;;14.00;11.00;;;;;;;;6327051;22;9306;-78
2021/12/06 09:35:20;;;;;;;;;17.50;13.50;;;;;;;;6320481;22;8745;-77
2021/12/06 09:37:45;;;;;;;;;23.25;16.75;;;;;;;;6329929;22;8710;-77
2021/12/06 09:40:14;;;;;;;;;57.75;42.25;;;;;;;;6331089;22;8730;-77
2021/12/06 09:42:42;;;;;;;;;69.25;50.75;;;;;;;;6326220;22;9089;-77
2021/12/06 09:45:08;;;;;;;;;43.25;37.25;;;;;;;;6292596;22;8758;-77
2021/12/06 09:47:33;;;;;;;;;37.50;32.75;;;;;;;;6333503;22;8722;-77
2021/12/06 09:49:59;;;;;;;;;23.00;18.50;;;;;;;;6327273;22;8754;-77
2021/12/06 09:52:24;;;;;;;;;27.25;19.00;;;;;;;;6304242;22;8754;-77
2021/12/06 09:54:49;;;;;;;;;16.67;15.00;;;;;;;;6335781;22;8757;-78
2021/12/06 09:57:14;;;;;;;;;15.75;15.25;;;;;;;;6326849;22;11419;-77
2021/12/06 09:59:41;;;;;;;;;21.25;16.25;;;;;;;;6326799;22;8765;-77
2021/12/06 10:02:09;;;;;;;;;21.25;15.25;;;;;;;;6324702;22;8769;-76
2021/12/06 10:04:39;;;;;;;;;21.75;15.00;;;;;;;;6297589;22;8848;-78
2021/12/06 10:07:09;;;;;;;;;22.75;18.00;;;;;;;;6294388;22;9076;-78
2021/12/06 10:09:35;;;;;;;;;15.75;15.50;;;;;;;;6304126;22;8758;-78
2021/12/06 10:12:01;;;;;;;;;18.25;15.75;;;;;;;;6327439;22;8719;-78
2021/12/06 10:14:28;;;;;;;;;21.00;15.75;;;;;;;;6327824;22;8734;-78
2021/12/06 10:16:53;;;;;;;;;21.25;15.25;;;;;;;;6328603;22;8719;-76
2021/12/06 10:19:21;;;;;;;;;17.67;15.00;;;;;;;;6333197;22;9431;-77
2021/12/06 10:21:47;;;;;;;;;25.00;19.25;;;;;;;;6332629;22;9432;-78
2021/12/06 10:24:14;;;;;;;;;21.00;16.25;;;;;;;;6305172;22;8741;-79
2021/12/06 10:26:40;;;;;;;;;15.00;14.00;;;;;;;;6296384;22;8896;-77
2021/12/06 10:29:09;;;;;;;;;20.50;18.75;;;;;;;;6320693;22;8776;-78
2021/12/06 10:31:38;;;;;;;;;24.00;18.00;;;;;;;;6330203;22;8762;-77
2021/12/06 10:45:06;;;;;;;;;12.25;11.00;;;;;;;;6344764;22;8776;-78
2021/12/06 10:47:31;;;;;;;;;12.00;10.75;;;;;;;;6362836;22;8759;-78
2021/12/06 10:50:07;;;;;;;;;14.50;11.00;;;;;;;;6355720;22;8940;-78
2021/12/06 10:52:33;;;;;;;;;12.00;8.00;;;;;;;;6373125;22;10058;-78
2021/12/06 10:54:58;;;;;;;;;14.75;11.50;;;;;;;;6368886;22;8756;-78
2021/12/06 10:57:43;;;;;;;;;15.25;12.00;;;;;;;;6364116;22;8822;-78
2021/12/06 12:32:56;;;;;;;;;7.50;7.50;;;;;;;;6367426;22;8871;-79
2021/12/06 12:35:21;;;;;;;;;9.75;6.75;;;;;;;;6369144;22;8842;-81
2021/12/06 12:37:54;;;;;;;;;11.50;8.75;;;;;;;;6367972;22;8728;-79
2021/12/06 12:40:21;;;;;;;;;11.50;7.00;;;;;;;;6344293;22;8747;-78
2021/12/06 12:42:57;;;;;;;;;10.25;8.75;;;;;;;;6373608;22;8754;-78
2021/12/06 12:45:22;;;;;;;;;8.00;6.25;;;;;;;;6372610;22;8759;-78
2021/12/06 12:48:03;;;;;;;;;10.00;8.25;;;;;;;;6386734;22;8712;-79
2021/12/06 12:50:30;;;;;;;;;10.50;8.50;;;;;;;;6346079;22;8732;-78
2021/12/06 12:52:59;;;;;;;;;10.00;8.00;;;;;;;;6364259;22;8763;-78
2021/12/06 12:55:29;;;;;;;;;8.75;7.50;;;;;;;;6363803;22;9461;-78
2021/12/06 12:58:08;;;;;;;;;10.25;7.00;;;;;;;;6366147;22;8767;-75
2021/12/06 13:21:33;;;;;;;;;8.75;6.50;;;;;;;;6353007;22;9966;-79
2021/12/06 13:24:11;;;;;;;;;6.50;6.50;;;;;;;;6348074;22;8775;-78
2021/12/06 13:26:37;;;;;;;;;5.50;4.00;;;;;;;;6374726;22;8712;-78
2021/12/06 13:29:07;;;;;;;;;11.75;11.00;;;;;;;;6340207;22;8771;-79
2021/12/06 13:31:33;;;;;;;;;15.50;13.50;;;;;;;;6371855;22;8727;-77
2021/12/06 13:33:58;;;;;;;;;10.25;8.00;;;;;;;;6372231;22;8748;-77
2021/12/06 13:36:41;;;;;;;;;14.50;9.75;;;;;;;;6368743;22;8740;-78
2021/12/06 13:39:26;;;;;;;;;4.50;4.00;;;;;;;;6339215;22;8763;-78
2021/12/06 13:41:52;;;;;;;;;9.00;7.25;;;;;;;;6339748;22;8744;-79
2021/12/06 13:44:21;;;;;;;;;7.50;7.00;;;;;;;;6340825;22;9599;-82
2021/12/06 13:46:50;;;;;;;;;11.00;8.00;;;;;;;;6367527;22;8750;-79
2021/12/06 13:49:20;;;;;;;;;3.75;3.75;;;;;;;;6371576;22;8859;-77
2021/12/06 13:51:59;;;;;;;;;5.00;3.75;;;;;;;;6373725;22;8716;-78
2021/12/06 13:54:35;;;;;;;;;7.25;6.25;;;;;;;;6366008;22;8728;-79
2021/12/06 13:57:00;;;;;;;;;6.25;4.00;;;;;;;;6363415;22;8721;-78
2021/12/06 13:59:29;;;;;;;;;6.00;4.00;;;;;;;;6369771;22;8744;-80
2021/12/06 14:01:56;;;;;;;;;10.75;5.25;;;;;;;;6369831;22;12194;-77
2021/12/06 14:04:22;;;;;;;;;7.25;4.50;;;;;;;;6372530;22;8756;-79
2021/12/06 14:06:50;;;;;;;;;6.00;3.50;;;;;;;;6343059;22;8752;-78
2021/12/06 14:09:19;;;;;;;;;3.50;3.50;;;;;;;;6376335;22;8716;-80
2021/12/06 14:11:51;;;;;;;;;3.00;3.00;;;;;;;;6386417;22;8683;-80
2021/12/06 14:14:43;;;;;;;;;3.00;3.00;;;;;;;;6358762;22;9068;-80
2021/12/06 14:17:10;;;;;;;;;4.25;4.25;;;;;;;;6369893;22;8771;-79
2021/12/06 14:19:35;;;;;;;;;10.50;5.00;;;;;;;;6373120;22;8862;-81
2021/12/06 14:22:02;;;;;;;;;7.00;7.00;;;;;;;;6345949;22;8759;-79
2021/12/06 14:24:29;;;;;;;;;4.25;4.25;;;;;;;;6344928;22;8779;-78
2021/12/06 14:26:55;;;;;;;;;18.25;14.00;;;;;;;;6364615;22;8736;-78
2021/12/06 14:29:22;;;;;;;;;25.75;19.50;;;;;;;;6344631;22;8749;-78
2021/12/06 14:31:50;;;;;;;;;21.75;17.75;;;;;;;;6343167;22;8719;-79
2021/12/06 14:34:15;;;;;;;;;17.75;13.50;;;;;;;;6372726;22;8785;-79
2021/12/06 14:36:42;;;;;;;;;21.25;15.25;;;;;;;;6364883;22;8744;-80
2021/12/06 14:39:12;;;;;;;;;12.50;8.50;;;;;;;;6370508;22;8752;-78
2021/12/06 14:41:48;;;;;;;;;3.00;2.25;;;;;;;;6374103;22;8724;-78
2021/12/06 14:44:28;;;;;;;;;8.00;4.75;;;;;;;;6370895;22;8705;-78
2021/12/06 14:46:54;;;;;;;;;30.25;23.00;;;;;;;;6340338;22;9597;-80
2021/12/06 14:49:22;;;;;;;;;16.00;8.00;;;;;;;;6371840;22;8739;-80
2021/12/06 14:51:48;;;;;;;;;8.75;6.00;;;;;;;;6343817;22;8728;-78
2021/12/06 14:54:20;;;;;;;;;6.50;4.00;;;;;;;;6369772;22;8775;-79
2021/12/06 14:56:52;;;;;;;;;5.00;4.50;;;;;;;;6369672;22;8731;-78
2021/12/06 14:59:18;;;;;;;;;6.00;3.50;;;;;;;;6374453;22;8721;-79
2021/12/06 15:01:43;;;;;;;;;11.00;7.00;;;;;;;;6375978;22;8841;-78
2021/12/06 15:04:28;;;;;;;;;11.67;11.67;;;;;;;;6373279;22;8763;-78
2021/12/06 15:06:55;;;;;;;;;11.50;10.75;;;;;;;;6371763;22;10327;-78
2021/12/06 15:09:21;;;;;;;;;17.25;15.00;;;;;;;;6372163;22;9588;-78
2021/12/06 15:11:55;;;;;;;;;7.75;5.00;;;;;;;;6373289;22;8728;-79
2021/12/06 15:14:21;;;;;;;;;4.50;4.50;;;;;;;;6347048;22;8744;-79
2021/12/06 15:16:46;;;;;;;;;9.75;7.75;;;;;;;;6376083;22;8715;-78
2021/12/06 15:19:13;;;;;;;;;12.25;8.75;;;;;;;;6379977;22;8747;-78
2021/12/06 15:21:43;;;;;;;;;20.00;13.25;;;;;;;;6374629;22;8744;-79
2021/12/06 15:24:11;;;;;;;;;8.00;7.25;;;;;;;;6344973;22;9401;-79
2021/12/06 15:26:45;;;;;;;;;10.25;6.25;;;;;;;;6372699;22;8724;-79
2021/12/06 15:29:22;;;;;;;;;18.50;13.25;;;;;;;;6375978;22;8736;-79
2021/12/06 15:31:49;;;;;;;;;10.25;10.00;;;;;;;;6376321;22;8716;-79
2021/12/06 15:34:19;;;;;;;;;10.50;6.00;;;;;;;;6347662;22;8830;-78
2021/12/06 15:36:44;;;;;;;;;26.00;19.50;;;;;;;;6372462;22;8716;-78
2021/12/06 15:39:11;;;;;;;;;10.00;7.00;;;;;;;;6373880;22;8724;-78
2021/12/06 15:41:40;;;;;;;;;30.50;25.00;;;;;;;;6375917;22;8874;-78
2021/12/06 15:44:14;;;;;;;;;40.00;34.50;;;;;;;;6374578;22;8770;-79
2021/12/06 15:46:46;;;;;;;;;35.25;30.00;;;;;;;;6375859;22;8657;-80
2021/12/06 15:49:19;;;;;;;;;20.25;13.50;;;;;;;;6380802;22;8685;-79
2021/12/06 15:51:51;;;;;;;;;15.25;11.75;;;;;;;;6377897;22;8739;-79
2021/12/06 15:54:18;;;;;;;;;5.00;2.75;;;;;;;;6377451;22;8720;-79
2021/12/06 15:56:44;;;;;;;;;1.75;1.00;;;;;;;;6373683;22;8656;-79
2021/12/06 15:59:13;;;;;;;;;4.50;2.25;;;;;;;;6348687;22;8787;-79
2021/12/06 16:01:42;;;;;;;;;3.50;2.50;;;;;;;;6376450;22;8819;-80
2021/12/06 16:04:09;;;;;;;;;2.25;2.00;;;;;;;;6376742;22;8772;-79
2021/12/06 16:06:35;;;;;;;;;2.25;2.00;;;;;;;;6374536;22;8686;-79
2021/12/06 16:09:06;;;;;;;;;2.50;2.00;;;;;;;;6375783;22;8720;-80
2021/12/06 16:11:31;;;;;;;;;6.00;2.00;;;;;;;;6349548;22;8740;-79
2021/12/06 16:13:57;;;;;;;;;3.00;3.00;;;;;;;;6376066;22;8781;-79
2021/12/06 16:16:22;;;;;;;;;3.50;2.00;;;;;;;;6372782;22;9460;-79
2021/12/06 16:18:48;;;;;;;;;3.00;3.00;;;;;;;;6377254;22;9359;-80
2021/12/06 16:21:35;;;;;;;;;2.50;1.50;;;;;;;;6377201;22;8762;-80
2021/12/06 16:24:02;;;;;;;;;2.00;2.00;;;;;;;;6362364;22;8760;-80
2021/12/06 16:26:38;;;;;;;;;2.25;1.25;;;;;;;;6371384;22;8751;-80
2021/12/06 16:29:09;;;;;;;;;1.00;1.00;;;;;;;;6374835;22;8734;-80
2021/12/06 16:31:39;;;;;;;;;1.00;1.00;;;;;;;;6375850;22;8729;-80
2021/12/06 16:34:06;;;;;;;;;1.00;1.00;;;;;;;;6349586;22;8760;-80
2021/12/06 16:36:37;;;;;;;;;2.00;2.00;;;;;;;;6372188;22;8728;-80
2021/12/06 16:39:08;;;;;;;;;2.75;2.00;;;;;;;;6376246;22;8751;-80
2021/12/06 16:41:34;;;;;;;;;4.50;2.00;;;;;;;;6377015;22;8743;-79
2021/12/06 16:44:07;;;;;;;;;2.00;2.00;;;;;;;;6377431;22;8771;-82
2021/12/06 16:46:43;;;;;;;;;3.50;2.00;;;;;;;;6371475;22;9117;-80
2021/12/06 16:49:08;;;;;;;;;1.25;1.25;;;;;;;;6348046;22;8825;-80
2021/12/06 16:51:35;;;;;;;;;5.25;2.50;;;;;;;;6377455;22;8766;-80
2021/12/06 16:54:05;;;;;;;;;7.50;5.75;;;;;;;;6381837;22;9830;-80
2021/12/06 16:56:30;;;;;;;;;3.75;2.00;;;;;;;;6376444;22;8807;-80
2021/12/06 16:58:55;;;;;;;;;9.75;7.75;;;;;;;;6377893;22;8752;-80
2021/12/06 17:01:21;;;;;;;;;8.25;6.75;;;;;;;;6377109;22;9393;-80
2021/12/06 17:03:48;;;;;;;;;6.00;3.50;;;;;;;;6376703;22;8776;-79
2021/12/06 17:06:25;;;;;;;;;6.00;5.00;;;;;;;;6375794;22;8712;-80
2021/12/06 17:08:52;;;;;;;;;5.00;2.50;;;;;;;;6375255;22;8743;-79
2021/12/06 17:11:25;;;;;;;;;5.25;5.25;;;;;;;;6378434;22;8720;-80
2021/12/06 17:13:59;;;;;;;;;6.00;4.50;;;;;;;;6374281;22;8720;-79
2021/12/06 17:16:30;;;;;;;;;3.50;2.50;;;;;;;;6371941;22;8704;-79
2021/12/06 17:19:06;;;;;;;;;5.75;4.50;;;;;;;;6369416;22;8797;-79
2021/12/06 17:21:31;;;;;;;;;1.25;1.25;;;;;;;;6373780;22;8731;-81
2021/12/06 17:24:12;;;;;;;;;5.00;3.00;;;;;;;;6368401;22;8812;-92
2021/12/06 17:26:42;;;;;;;;;5.25;5.25;;;;;;;;6366867;22;8726;-79
2021/12/06 17:29:14;;;;;;;;;3.00;3.00;;;;;;;;6345170;22;9581;-79
2021/12/06 17:31:44;;;;;;;;;5.00;3.00;;;;;;;;6371706;22;8810;-80
2021/12/06 17:34:14;;;;;;;;;4.50;4.50;;;;;;;;6373645;22;8826;-79
2021/12/06 17:36:41;;;;;;;;;2.25;2.25;;;;;;;;6367580;22;8751;-80
2021/12/06 18:04:59;;;;;;;;;2.50;2.25;;;;;;;;6366488;22;9555;-80
2021/12/06 18:07:24;;;;;;;;;2.00;2.00;;;;;;;;6340722;22;8746;-80
2021/12/06 18:09:50;;;;;;;;;6.00;3.00;;;;;;;;6373961;22;8755;-81
2021/12/06 18:12:15;;;;;;;;;3.75;2.00;;;;;;;;6368498;22;9497;-82
2021/12/06 18:14:41;;;;;;;;;3.00;3.00;;;;;;;;6370611;22;8766;-84
2021/12/06 18:17:10;;;;;;;;;5.00;3.00;;;;;;;;6366466;22;8766;-81
2021/12/06 18:19:36;;;;;;;;;2.00;2.00;;;;;;;;6370695;22;8743;-83
2021/12/06 18:22:08;;;;;;;;;9.50;7.75;;;;;;;;6370065;22;8760;-85
2021/12/06 18:27:41;;;;;;;;;33.25;21.00;;;;;;;;6368089;22;8836;-91
2021/12/06 18:30:08;;;;;;;;;13.00;10.25;;;;;;;;6345973;22;8762;-82
2021/12/06 18:32:34;;;;;;;;;16.00;13.75;;;;;;;;6372395;22;8756;-83
2021/12/06 18:34:59;;;;;;;;;16.75;13.00;;;;;;;;6372816;22;8771;-82
2021/12/06 18:37:31;;;;;;;;;6.25;6.00;;;;;;;;6372175;22;8740;-81
2021/12/06 18:40:02;;;;;;;;;10.00;7.00;;;;;;;;6344685;22;8759;-81
2021/12/06 18:45:22;;;;;;;;;7.25;3.50;;;;;;;;6357142;22;9756;-80
2021/12/06 18:47:53;;;;;;;;;4.50;3.00;;;;;;;;6372651;22;9477;-84
2021/12/06 18:50:22;;;;;;;;;7.00;3.00;;;;;;;;6374218;22;8681;-86
2021/12/06 19:01:33;;;;;;;;;6.00;1.25;;;;;;;;6368666;22;8775;-84
2021/12/06 19:03:58;;;;;;;;;2.75;2.75;;;;;;;;6338628;22;8864;-84
2021/12/06 19:06:23;;;;;;;;;3.00;2.00;;;;;;;;6366652;22;8755;-80
2021/12/06 19:08:54;;;;;;;;;2.00;2.00;;;;;;;;6367806;22;8768;-82
2021/12/06 19:11:22;;;;;;;;;4.50;2.75;;;;;;;;6344894;22;8724;-82
2021/12/06 19:13:50;;;;;;;;;7.50;3.00;;;;;;;;6344553;22;9722;-82
2021/12/06 19:16:15;;;;;;;;;6.00;2.00;;;;;;;;6372930;22;8738;-81
2021/12/06 19:18:41;;;;;;;;;4.00;4.00;;;;;;;;6374079;22;8767;-83
2021/12/06 19:21:16;;;;;;;;;12.25;8.25;;;;;;;;6346580;22;8751;-83
2021/12/06 19:29:24;;;;;;;;;13.75;6.75;;;;;;;;6350205;22;8716;-82
2021/12/06 19:31:50;;;;;;;;;7.25;6.00;;;;;;;;6370280;22;8728;-82
2021/12/06 19:34:15;;;;;;;;;10.25;9.25;;;;;;;;6342789;22;8858;-82
2021/12/06 19:37:03;;;;;;;;;18.25;16.50;;;;;;;;6383497;22;8763;-82
2021/12/06 19:39:29;;;;;;;;;18.25;12.50;;;;;;;;6341831;22;8680;-81
2021/12/06 19:41:54;;;;;;;;;10.75;9.50;;;;;;;;6370971;22;8743;-83
2021/12/06 19:44:19;;;;;;;;;13.33;8.33;;;;;;;;6371058;22;10020;-81
2021/12/06 19:46:48;;;;;;;;;6.33;6.33;;;;;;;;6366019;22;9516;-83
2021/12/06 19:49:13;;;;;;;;;5.75;5.75;;;;;;;;6341459;22;9463;-84
2021/12/06 19:51:41;;;;;;;;;5.00;5.00;;;;;;;;6338444;22;8748;-83
2021/12/06 19:54:07;;;;;;;;;15.25;15.00;;;;;;;;6366121;22;8740;-83
2021/12/06 19:56:32;;;;;;;;;8.75;6.75;;;;;;;;6337489;22;8764;-84
2021/12/06 19:59:02;;;;;;;;;14.25;9.00;;;;;;;;6340610;22;8888;-83
2021/12/06 20:11:48;;;;;;;;;55.25;42.50;;;;;;;;6343157;22;8822;-81
2021/12/06 20:16:49;;;;;;;;;26.50;20.25;;;;;;;;6353988;22;8796;-80
2021/12/06 20:19:15;;;;;;;;;18.00;12.75;;;;;;;;6369610;22;8833;-79
2021/12/06 20:21:44;;;;;;;;;14.00;9.75;;;;;;;;6341696;22;9497;-82
2021/12/06 20:24:18;;;;;;;;;6.75;6.00;;;;;;;;6340103;22;8752;-83
2021/12/06 20:34:07;;;;;;;;;5.50;5.50;;;;;;;;6241181;22;8749;-82
2021/12/06 20:36:14;;;;;;;;;11.00;9.25;;;;;;;;6359896;22;8665;-82
2021/12/06 20:50:28;;;;;;;;;6.00;6.00;;;;;;;;6348306;22;8786;-81
2021/12/06 20:52:55;;;;;;;;;9.00;6.00;;;;;;;;6336469;22;8777;-81
2021/12/06 20:55:20;;;;;;;;;9.00;6.50;;;;;;;;6341315;22;8738;-81
2021/12/06 20:57:48;;;;;;;;;7.00;6.00;;;;;;;;6340608;22;8753;-82
2021/12/06 21:00:14;;;;;;;;;8.00;6.00;;;;;;;;6312134;22;8769;-78
2021/12/06 21:02:40;;;;;;;;;6.75;6.00;;;;;;;;6311141;22;9154;-81
2021/12/06 21:05:09;;;;;;;;;7.50;6.00;;;;;;;;6341500;22;8861;-80
2021/12/06 21:07:39;;;;;;;;;6.50;6.50;;;;;;;;6338824;22;8743;-80
2021/12/06 21:10:06;;;;;;;;;8.00;6.75;;;;;;;;6343228;22;8788;-80
2021/12/06 21:13:00;;;;;;;;;7.00;6.00;;;;;;;;6313753;22;8757;-82
2021/12/06 21:23:15;;;;;;;;;6.25;5.50;;;;;;;;6362253;22;8799;-82
2021/12/06 21:25:40;;;;;;;;;10.75;5.75;;;;;;;;6372750;22;8687;-82
2021/12/06 21:28:08;;;;;;;;;5.00;4.50;;;;;;;;6371366;22;9500;-81
2021/12/06 21:30:33;;;;;;;;;5.75;3.50;;;;;;;;6370708;22;8784;-81
2021/12/06 21:33:03;;;;;;;;;6.00;4.00;;;;;;;;6369508;22;8787;-83
2021/12/06 21:35:29;;;;;;;;;7.50;6.50;;;;;;;;6373731;22;8712;-81
2021/12/06 21:37:55;;;;;;;;;6.75;3.00;;;;;;;;6372080;22;8672;-81
2021/12/06 21:40:40;;;;;;;;;8.50;6.00;;;;;;;;6367758;22;8736;-83
2021/12/06 21:43:22;;;;;;;;;;;;;;;;;;;;;
2021/12/06 21:45:50;;;;;;;;;5.75;5.75;;;;;;;;6384254;22;36050;-82
2021/12/06 21:58:35;;;;;;;;;4.00;3.00;;;;;;;;6360096;22;8779;-83
2021/12/06 22:01:02;;;;;;;;;11.50;2.50;;;;;;;;6336668;22;8768;-81
2021/12/06 22:06:53;;;;;;;;;3.75;3.00;;;;;;;;6319707;22;8696;-78
2021/12/06 22:10:10;;;;;;;;;5.00;3.00;;;;;;;;6307428;22;8748;-82
2021/12/06 22:12:28;;;;;;;;;3.00;1.50;;;;;;;;6301864;22;8745;-82
2021/12/06 22:15:12;;;;;;;;;4.00;1.25;;;;;;;;6304733;22;8962;-82
2021/12/06 22:17:38;;;;;;;;;4.75;1.00;;;;;;;;6303586;22;8665;-81
2021/12/06 22:20:07;;;;;;;;;1.00;1.00;;;;;;;;6305812;22;8900;-81
2021/12/06 22:22:32;;;;;;;;;2.25;1.00;;;;;;;;6305284;22;8764;-82
2021/12/06 22:24:57;;;;;;;;;3.67;2.33;;;;;;;;6306179;22;8762;-81
2021/12/06 22:27:22;;;;;;;;;1.00;1.00;;;;;;;;6305776;22;10019;-81
2021/12/06 22:29:50;;;;;;;;;1.00;0.67;;;;;;;;6280683;22;10740;-81
2021/12/06 22:32:16;;;;;;;;;6.75;2.25;;;;;;;;6349213;22;9737;-81
2021/12/06 22:34:41;;;;;;;;;0.75;0.75;;;;;;;;6365323;22;8809;-81
2021/12/06 22:37:09;;;;;;;;;0.50;0.50;;;;;;;;6334156;22;8775;-81
2021/12/06 22:39:35;;;;;;;;;0.25;0.25;;;;;;;;6328626;22;8732;-81
2021/12/06 22:42:05;;;;;;;;;2.50;2.00;;;;;;;;6368995;22;8740;-81
2021/12/06 22:53:16;;;;;;;;;1.50;1.50;;;;;;;;6359303;22;8783;-81
2021/12/06 22:55:41;;;;;;;;;2.00;0.00;;;;;;;;6355773;22;8769;-81
2021/12/06 22:58:08;;;;;;;;;0.25;0.25;;;;;;;;6357781;22;9865;-81
2021/12/06 23:00:39;;;;;;;;;1.00;1.00;;;;;;;;6370869;22;8775;-81
2021/12/06 23:03:06;;;;;;;;;0.00;0.00;;;;;;;;6366728;22;8760;-81
2021/12/06 23:05:31;;;;;;;;;2.00;1.00;;;;;;;;6370048;22;8760;-81
2021/12/06 23:07:57;;;;;;;;;1.75;1.50;;;;;;;;6366100;22;8732;-80
2021/12/06 23:10:27;;;;;;;;;0.00;0.00;;;;;;;;6361179;22;8744;-81
2021/12/06 23:12:52;;;;;;;;;1.75;1.00;;;;;;;;6342136;22;8771;-81
2021/12/06 23:15:20;;;;;;;;;1.00;1.00;;;;;;;;6367432;22;8833;-81
2021/12/06 23:23:58;;;;;;;;;1.25;0.00;;;;;;;;6272380;22;8771;-81
2021/12/06 23:26:24;;;;;;;;;1.75;1.00;;;;;;;;6271864;22;8793;-81
2021/12/06 23:28:51;;;;;;;;;1.25;0.50;;;;;;;;6273418;22;8763;-81
2021/12/06 23:31:16;;;;;;;;;2.00;2.00;;;;;;;;6276574;22;8771;-80
2021/12/06 23:33:45;;;;;;;;;1.00;0.00;;;;;;;;6276354;22;8764;-81
2021/12/06 23:36:10;;;;;;;;;4.50;1.00;;;;;;;;6265250;22;8736;-80
2021/12/06 23:38:46;;;;;;;;;2.00;1.00;;;;;;;;6264318;22;8763;-80
2021/12/06 23:41:21;;;;;;;;;0.00;0.00;;;;;;;;6234874;22;8759;-81
2021/12/06 23:46:35;;;;;;;;;0.25;0.25;;;;;;;;6259320;22;8767;-81
2021/12/06 23:49:03;;;;;;;;;2.00;0.00;;;;;;;;6243720;22;8830;-81
2021/12/06 23:51:29;;;;;;;;;1.00;0.25;;;;;;;;6270804;22;8901;-81
2021/12/06 23:53:56;;;;;;;;;1.25;1.00;;;;;;;;6273010;22;8771;-81
2021/12/06 23:56:21;;;;;;;;;0.00;0.00;;;;;;;;6263120;22;8759;-81
2021/12/06 23:58:50;;;;;;;;;2.75;2.00;;;;;;;;6297181;22;8767;-81
